Time;durP1;ratioP1;P1;durP2;ratioP2;P2;SDS_P1;SDS_P2;PMS_P1;PMS_P2;Temp;Humidity;BMP_temperature;BMP_pressure;BME280_temperature;BME280_humidity;BME280_pressure;Samples;Min_cycle;Max_cycle;Signal;HPM_P1;HPM_P2
2022/08/03 00:00:54;;;;;;;6.00;3.50;;;;;;;;;;5095700;28;20467;-69
2022/08/03 00:03:21;;;;;;;5.03;4.53;;;;;;;;;;5095269;28;20539;-69
2022/08/03 00:05:49;;;;;;;4.70;3.90;;;;;;;;;;5095306;28;20857;-69
2022/08/03 00:08:16;;;;;;;3.60;3.30;;;;;;;;;;5094088;28;20462;-69
2022/08/03 00:10:51;;;;;;;4.13;3.57;;;;;;;;;;5094142;28;20459;-69
2022/08/03 00:13:18;;;;;;;4.20;3.80;;;;;;;;;;5094285;28;20507;-69
2022/08/03 00:15:45;;;;;;;7.30;3.70;;;;;;;;;;5094502;28;20520;-69
2022/08/03 00:18:12;;;;;;;4.03;3.40;;;;;;;;;;5094083;28;20452;-69
2022/08/03 00:20:39;;;;;;;6.60;3.83;;;;;;;;;;5094358;28;20542;-69
2022/08/03 00:23:07;;;;;;;5.17;3.50;;;;;;;;;;5094212;28;20455;-69
2022/08/03 00:25:37;;;;;;;3.43;3.13;;;;;;;;;;5094286;28;20451;-69
2022/08/03 00:28:05;;;;;;;4.90;3.40;;;;;;;;;;5093853;28;20879;-69
2022/08/03 00:30:32;;;;;;;5.80;4.27;;;;;;;;;;5094720;28;20469;-69
2022/08/03 00:32:59;;;;;;;5.33;3.63;;;;;;;;;;5093330;28;20502;-69
2022/08/03 00:35:26;;;;;;;7.70;3.40;;;;;;;;;;5094131;28;20452;-69
2022/08/03 00:37:53;;;;;;;7.13;3.53;;;;;;;;;;5093987;28;20467;-69
2022/08/03 00:40:20;;;;;;;4.67;4.00;;;;;;;;;;5096772;28;20538;-69
2022/08/03 00:42:49;;;;;;;4.13;3.33;;;;;;;;;;5097508;28;20461;-69
2022/08/03 00:45:16;;;;;;;4.30;3.90;;;;;;;;;;5097324;28;20448;-68
2022/08/03 00:47:45;;;;;;;5.20;4.10;;;;;;;;;;5098030;28;20453;-69
2022/08/03 00:50:15;;;;;;;5.27;3.57;;;;;;;;;;5097146;28;20487;-69
2022/08/03 00:52:42;;;;;;;4.67;3.80;;;;;;;;;;5096943;28;20448;-69
2022/08/03 00:55:22;;;;;;;4.27;3.87;;;;;;;;;;5097677;28;20859;-69
2022/08/03 00:57:50;;;;;;;4.73;3.97;;;;;;;;;;5097028;28;20467;-69
2022/08/03 01:00:18;;;;;;;4.03;3.37;;;;;;;;;;5097339;28;20455;-69
2022/08/03 01:02:45;;;;;;;4.13;3.73;;;;;;;;;;5099268;28;20736;-69
2022/08/03 01:05:12;;;;;;;4.13;3.60;;;;;;;;;;5097240;28;20865;-69
2022/08/03 01:07:46;;;;;;;4.57;3.70;;;;;;;;;;5097170;28;20566;-69
2022/08/03 01:10:17;;;;;;;4.83;3.20;;;;;;;;;;5097187;28;20490;-69
2022/08/03 01:12:49;;;;;;;7.23;4.17;;;;;;;;;;5096809;28;20756;-69
2022/08/03 01:15:19;;;;;;;6.10;4.37;;;;;;;;;;5097093;28;20735;-68
2022/08/03 01:17:49;;;;;;;5.63;3.80;;;;;;;;;;5097098;28;20883;-69
2022/08/03 01:20:17;;;;;;;6.33;4.20;;;;;;;;;;5097042;28;20747;-69
2022/08/03 01:23:03;;;;;;;5.50;3.93;;;;;;;;;;5096400;28;20455;-69
2022/08/03 01:25:35;;;;;;;5.60;4.17;;;;;;;;;;5096335;28;20584;-69
2022/08/03 01:28:10;;;;;;;6.53;4.00;;;;;;;;;;5097051;28;20715;-69
2022/08/03 01:30:41;;;;;;;5.17;4.20;;;;;;;;;;5096454;28;20466;-69
2022/08/03 01:33:11;;;;;;;5.40;3.90;;;;;;;;;;5096757;28;20467;-69
2022/08/03 01:35:41;;;;;;;5.13;3.77;;;;;;;;;;5096612;28;20679;-69
2022/08/03 01:38:10;;;;;;;4.20;3.80;;;;;;;;;;5096854;28;20787;-69
2022/08/03 01:40:39;;;;;;;5.00;4.50;;;;;;;;;;5097518;28;20458;-69
2022/08/03 01:43:07;;;;;;;5.37;4.00;;;;;;;;;;5097267;28;20461;-69
2022/08/03 01:45:36;;;;;;;5.77;4.80;;;;;;;;;;5097378;28;20862;-69
2022/08/03 01:48:05;;;;;;;4.73;3.50;;;;;;;;;;5097060;28;20451;-69
2022/08/03 01:50:33;;;;;;;5.00;3.80;;;;;;;;;;5095549;28;20455;-69
2022/08/03 01:53:00;;;;;;;5.20;3.73;;;;;;;;;;5096038;28;20459;-69
2022/08/03 01:55:28;;;;;;;6.30;4.10;;;;;;;;;;5097375;28;20921;-69
2022/08/03 01:57:55;;;;;;;5.90;4.13;;;;;;;;;;5096829;28;20455;-69
2022/08/03 02:00:24;;;;;;;5.40;4.20;;;;;;;;;;5096020;28;20456;-68
2022/08/03 02:02:52;;;;;;;5.30;3.90;;;;;;;;;;5096429;28;20856;-69
2022/08/03 02:05:20;;;;;;;4.97;3.73;;;;;;;;;;5096379;28;20458;-72
2022/08/03 02:07:48;;;;;;;7.87;4.10;;;;;;;;;;5096598;28;20617;-69
2022/08/03 02:10:16;;;;;;;4.90;4.27;;;;;;;;;;5097395;28;20482;-69
2022/08/03 02:12:44;;;;;;;6.20;4.07;;;;;;;;;;5096572;28;20522;-69
2022/08/03 02:15:12;;;;;;;5.77;4.33;;;;;;;;;;5096573;28;20458;-69
2022/08/03 02:17:39;;;;;;;4.47;3.77;;;;;;;;;;5095178;28;20520;-69
2022/08/03 02:20:07;;;;;;;4.60;4.07;;;;;;;;;;5095917;28;20524;-69
2022/08/03 02:22:36;;;;;;;6.10;4.43;;;;;;;;;;5096144;28;20633;-69
2022/08/03 02:25:03;;;;;;;6.77;4.30;;;;;;;;;;5095462;28;20524;-69
2022/08/03 02:27:33;;;;;;;5.80;4.43;;;;;;;;;;5096231;28;20497;-69
2022/08/03 02:30:04;;;;;;;9.07;4.60;;;;;;;;;;5095644;28;20930;-69
2022/08/03 02:32:41;;;;;;;5.37;4.47;;;;;;;;;;5096324;28;20938;-69
2022/08/03 02:35:11;;;;;;;5.20;4.70;;;;;;;;;;5095527;28;20435;-69
2022/08/03 02:37:41;;;;;;;8.63;3.83;;;;;;;;;;5096236;28;21080;-69
2022/08/03 02:40:10;;;;;;;4.73;3.70;;;;;;;;;;5096077;28;20483;-69
2022/08/03 02:42:38;;;;;;;11.43;4.80;;;;;;;;;;5095703;28;21083;-69
2022/08/03 02:45:06;;;;;;;5.13;4.10;;;;;;;;;;5097028;28;20462;-69
2022/08/03 02:47:35;;;;;;;5.97;3.77;;;;;;;;;;5116034;27;20447;-69
2022/08/03 02:50:02;;;;;;;5.93;4.37;;;;;;;;;;5116190;27;20482;-69
2022/08/03 02:52:34;;;;;;;4.27;3.87;;;;;;;;;;5116183;27;20772;-69
2022/08/03 02:55:02;;;;;;;4.93;3.90;;;;;;;;;;5115119;27;20446;-69
2022/08/03 02:57:31;;;;;;;7.70;3.83;;;;;;;;;;5117259;27;21057;-69
2022/08/03 03:00:00;;;;;;;5.07;4.10;;;;;;;;;;5116103;27;20484;-69
2022/08/03 03:02:28;;;;;;;5.20;4.70;;;;;;;;;;5116034;27;20608;-69
2022/08/03 03:04:58;;;;;;;5.07;4.43;;;;;;;;;;5114928;27;20722;-69
2022/08/03 03:07:26;;;;;;;8.03;4.50;;;;;;;;;;5115848;27;20450;-69
2022/08/03 03:09:53;;;;;;;4.93;4.17;;;;;;;;;;5115373;27;20578;-69
2022/08/03 03:12:21;;;;;;;4.73;3.83;;;;;;;;;;5116339;27;20483;-68
2022/08/03 03:14:48;;;;;;;5.10;3.97;;;;;;;;;;5103201;27;20439;-68
2022/08/03 03:17:17;;;;;;;4.83;4.33;;;;;;;;;;5094011;28;20456;-69
2022/08/03 03:19:44;;;;;;;5.87;4.47;;;;;;;;;;5094621;28;20471;-69
2022/08/03 03:22:13;;;;;;;4.90;4.40;;;;;;;;;;5095021;28;20535;-69
2022/08/03 03:24:42;;;;;;;5.77;4.60;;;;;;;;;;5094964;28;20444;-69
2022/08/03 03:27:09;;;;;;;6.03;4.20;;;;;;;;;;5094506;28;20558;-69
2022/08/03 03:29:36;;;;;;;5.83;4.77;;;;;;;;;;5095395;28;20891;-69
2022/08/03 03:32:04;;;;;;;5.40;4.60;;;;;;;;;;5094522;28;20543;-69
2022/08/03 03:34:31;;;;;;;5.10;4.60;;;;;;;;;;5094920;28;20804;-69
2022/08/03 03:36:58;;;;;;;6.60;5.17;;;;;;;;;;5094284;28;20703;-69
2022/08/03 03:39:25;;;;;;;5.43;4.40;;;;;;;;;;5094867;28;20447;-69
2022/08/03 03:41:52;;;;;;;5.17;4.67;;;;;;;;;;5094404;28;20921;-69
2022/08/03 03:44:19;;;;;;;5.10;4.20;;;;;;;;;;5094224;28;20594;-69
2022/08/03 03:46:47;;;;;;;5.10;4.57;;;;;;;;;;5094027;28;20448;-69
2022/08/03 03:49:17;;;;;;;5.10;4.60;;;;;;;;;;5093895;28;20556;-69
2022/08/03 03:51:44;;;;;;;5.60;5.10;;;;;;;;;;5093969;28;20447;-69
2022/08/03 03:54:10;;;;;;;6.97;4.30;;;;;;;;;;5093947;28;21085;-69
2022/08/03 03:56:37;;;;;;;4.53;4.13;;;;;;;;;;5094498;28;20509;-69
2022/08/03 03:59:04;;;;;;;6.87;4.67;;;;;;;;;;5094335;28;20459;-70
2022/08/03 04:01:32;;;;;;;4.23;3.80;;;;;;;;;;5093816;28;20458;-69
2022/08/03 04:10:57;;;;;;;6.00;5.03;;;;;;;;;;5094533;28;20460;-69
2022/08/03 04:12:18;;;;;;;7.10;4.17;;;;;;;;;;5093297;28;20450;-68
2022/08/03 04:14:46;;;;;;;6.30;4.33;;;;;;;;;;5093820;28;20455;-69
2022/08/03 04:17:13;;;;;;;6.13;4.90;;;;;;;;;;5093183;28;20540;-69
2022/08/03 04:19:43;;;;;;;7.47;4.67;;;;;;;;;;5092742;28;20739;-69
2022/08/03 04:22:11;;;;;;;6.53;4.63;;;;;;;;;;5093029;28;20743;-69
2022/08/03 04:24:40;;;;;;;9.17;5.83;;;;;;;;;;5093215;28;20463;-68
2022/08/03 04:27:08;;;;;;;5.10;4.60;;;;;;;;;;5093774;28;20452;-69
2022/08/03 04:29:36;;;;;;;9.30;4.30;;;;;;;;;;5092988;28;20756;-69
2022/08/03 04:32:03;;;;;;;5.23;4.53;;;;;;;;;;5094795;28;20448;-69
2022/08/03 04:34:31;;;;;;;6.60;4.47;;;;;;;;;;5093486;28;20450;-69
2022/08/03 04:37:00;;;;;;;9.10;5.70;;;;;;;;;;5093151;28;20454;-69
2022/08/03 04:39:28;;;;;;;6.60;5.33;;;;;;;;;;5093876;28;20443;-68
2022/08/03 04:41:56;;;;;;;5.40;4.70;;;;;;;;;;5094087;28;20456;-68
2022/08/03 04:44:24;;;;;;;5.10;3.83;;;;;;;;;;5092930;28;20532;-70
2022/08/03 04:46:51;;;;;;;5.10;4.27;;;;;;;;;;5093440;28;20512;-69
2022/08/03 04:49:20;;;;;;;5.03;4.53;;;;;;;;;;5093369;28;20781;-69
2022/08/03 04:51:48;;;;;;;8.20;4.97;;;;;;;;;;5093932;28;20867;-69
2022/08/03 04:54:16;;;;;;;29.80;19.40;;;;;;;;;;5093879;28;20782;-69
2022/08/03 04:56:43;;;;;;;8.07;4.40;;;;;;;;;;5095654;28;20754;-69
2022/08/03 04:59:10;;;;;;;6.67;5.10;;;;;;;;;;5094650;28;20447;-69
2022/08/03 05:02:02;;;;;;;6.07;4.70;;;;;;;;;;5093445;28;20605;-69
2022/08/03 05:04:29;;;;;;;7.83;4.60;;;;;;;;;;5077841;28;20472;-69
2022/08/03 05:06:56;;;;;;;4.67;4.17;;;;;;;;;;5073552;28;20460;-70
2022/08/03 05:09:24;;;;;;;4.80;3.83;;;;;;;;;;5073153;28;20535;-68
2022/08/03 05:11:50;;;;;;;4.20;3.60;;;;;;;;;;5073380;28;20468;-69
2022/08/03 05:14:18;;;;;;;6.97;4.33;;;;;;;;;;5071681;28;20444;-69
2022/08/03 05:16:44;;;;;;;5.10;4.60;;;;;;;;;;5072635;28;20500;-69
2022/08/03 05:19:11;;;;;;;20.27;5.93;;;;;;;;;;5072969;28;20453;-69
2022/08/03 05:21:39;;;;;;;4.97;4.47;;;;;;;;;;5074327;28;20504;-70
2022/08/03 05:24:06;;;;;;;6.60;4.10;;;;;;;;;;5072494;28;20452;-69
2022/08/03 05:26:33;;;;;;;5.50;4.03;;;;;;;;;;5073857;28;20445;-70
2022/08/03 05:29:00;;;;;;;4.03;3.50;;;;;;;;;;5075871;28;20570;-70
2022/08/03 05:31:27;;;;;;;3.80;3.40;;;;;;;;;;5074275;28;20452;-68
2022/08/03 05:33:55;;;;;;;9.93;4.43;;;;;;;;;;5074875;28;20492;-70
2022/08/03 05:36:22;;;;;;;5.60;3.57;;;;;;;;;;5074757;28;20614;-69
2022/08/03 05:38:49;;;;;;;39.33;6.40;;;;;;;;;;5074430;28;20786;-69
2022/08/03 05:41:16;;;;;;;4.10;3.70;;;;;;;;;;5095751;28;20484;-68
2022/08/03 05:43:44;;;;;;;4.53;3.80;;;;;;;;;;5076316;28;20820;-69
2022/08/03 05:46:11;;;;;;;5.07;4.00;;;;;;;;;;5076034;28;20530;-69
2022/08/03 05:48:38;;;;;;;4.50;3.70;;;;;;;;;;5074186;28;20448;-69
2022/08/03 05:51:12;;;;;;;6.07;3.50;;;;;;;;;;5074806;28;20448;-69
2022/08/03 05:53:39;;;;;;;4.30;3.60;;;;;;;;;;5083446;28;20544;-69
2022/08/03 05:56:06;;;;;;;4.83;3.43;;;;;;;;;;5096082;28;20448;-69
2022/08/03 05:58:33;;;;;;;4.93;3.43;;;;;;;;;;5096151;28;20464;-69
2022/08/03 06:01:00;;;;;;;4.90;4.00;;;;;;;;;;5095992;28;20451;-69
2022/08/03 06:03:27;;;;;;;5.40;3.23;;;;;;;;;;5095463;28;20482;-70
2022/08/03 06:05:55;;;;;;;6.40;3.73;;;;;;;;;;5095813;28;20539;-70
2022/08/03 06:08:22;;;;;;;4.00;3.13;;;;;;;;;;5095681;28;20452;-70
2022/08/03 06:10:49;;;;;;;6.43;3.83;;;;;;;;;;5113235;28;20989;-70
2022/08/03 06:13:16;;;;;;;3.97;3.57;;;;;;;;;;5115661;28;20750;-69
2022/08/03 06:15:43;;;;;;;5.70;3.60;;;;;;;;;;5115209;28;20541;-70
2022/08/03 06:18:10;;;;;;;5.83;3.60;;;;;;;;;;5116119;28;20454;-70
2022/08/03 06:20:37;;;;;;;6.37;4.30;;;;;;;;;;5115545;28;20458;-70
2022/08/03 06:23:04;;;;;;;4.40;3.73;;;;;;;;;;5114998;28;20451;-70
2022/08/03 06:25:31;;;;;;;4.00;3.17;;;;;;;;;;5115037;28;20462;-70
2022/08/03 06:27:58;;;;;;;5.47;3.00;;;;;;;;;;5114066;28;20516;-69
2022/08/03 06:30:25;;;;;;;5.17;3.17;;;;;;;;;;5113960;28;20597;-70
2022/08/03 06:32:52;;;;;;;7.37;3.70;;;;;;;;;;5113502;28;20461;-69
2022/08/03 06:35:20;;;;;;;6.83;4.00;;;;;;;;;;5112983;28;20871;-69
2022/08/03 06:37:47;;;;;;;4.27;3.30;;;;;;;;;;5096701;28;20521;-69
2022/08/03 06:40:15;;;;;;;6.13;4.00;;;;;;;;;;5092666;28;20811;-69
2022/08/03 06:42:42;;;;;;;11.13;3.97;;;;;;;;;;5089583;28;20465;-69
2022/08/03 06:45:10;;;;;;;5.43;4.30;;;;;;;;;;5114902;28;20889;-70
2022/08/03 06:47:40;;;;;;;5.50;4.27;;;;;;;;;;5115305;28;20480;-70
2022/08/03 06:50:08;;;;;;;5.37;4.10;;;;;;;;;;5114471;28;20893;-70
2022/08/03 06:52:36;;;;;;;4.47;3.50;;;;;;;;;;5114673;28;20450;-70
2022/08/03 06:55:04;;;;;;;5.73;4.30;;;;;;;;;;5108331;28;20447;-68
2022/08/03 06:57:34;;;;;;;5.30;3.70;;;;;;;;;;5094249;28;20452;-70
2022/08/03 07:00:01;;;;;;;4.77;3.20;;;;;;;;;;5094273;28;20447;-70
2022/08/03 07:02:29;;;;;;;4.80;3.20;;;;;;;;;;5094275;28;20472;-71
2022/08/03 07:04:57;;;;;;;4.90;3.20;;;;;;;;;;5093312;28;20460;-71
2022/08/03 07:07:25;;;;;;;6.97;4.00;;;;;;;;;;5093257;28;20554;-70
2022/08/03 07:09:53;;;;;;;4.60;2.77;;;;;;;;;;5085645;28;20562;-70
2022/08/03 07:12:21;;;;;;;3.83;3.30;;;;;;;;;;5096291;28;20462;-70
2022/08/03 07:14:48;;;;;;;7.40;2.87;;;;;;;;;;5101363;28;20971;-68
2022/08/03 07:17:15;;;;;;;3.60;2.87;;;;;;;;;;5077088;28;20460;-71
2022/08/03 07:19:42;;;;;;;3.53;3.10;;;;;;;;;;5074457;28;20539;-70
2022/08/03 07:22:10;;;;;;;3.50;2.80;;;;;;;;;;5085063;28;20493;-70
2022/08/03 07:24:37;;;;;;;4.87;2.57;;;;;;;;;;5114270;27;20442;-72
2022/08/03 07:27:05;;;;;;;4.83;3.40;;;;;;;;;;5115199;27;20459;-70
2022/08/03 07:29:32;;;;;;;5.03;2.63;;;;;;;;;;5096269;28;20935;-69
2022/08/03 07:32:00;;;;;;;6.53;4.83;;;;;;;;;;5093340;28;20479;-70
2022/08/03 07:34:28;;;;;;;5.87;2.83;;;;;;;;;;5077371;28;20445;-70
2022/08/03 07:36:55;;;;;;;7.70;3.07;;;;;;;;;;5094262;27;20554;-70
2022/08/03 07:39:22;;;;;;;4.40;2.40;;;;;;;;;;5105765;27;20537;-70
2022/08/03 07:41:50;;;;;;;4.93;2.37;;;;;;;;;;5114349;27;20545;-70
2022/08/03 07:44:18;;;;;;;3.33;2.17;;;;;;;;;;5091559;28;20483;-73
2022/08/03 07:46:45;;;;;;;4.43;1.77;;;;;;;;;;5110814;27;20553;-71
2022/08/03 07:49:24;;;;;;;3.13;1.80;;;;;;;;;;5113592;27;20475;-71
2022/08/03 07:54:36;;;;;;;3.27;2.40;;;;;;;;;;5092910;28;20440;-71
2022/08/03 07:57:16;;;;;;;3.00;2.20;;;;;;;;;;5093776;28;20499;-71
2022/08/03 07:59:50;;;;;;;2.97;2.07;;;;;;;;;;5079509;28;20483;-70
2022/08/03 08:02:21;;;;;;;4.17;1.90;;;;;;;;;;5073677;28;20494;-71
2022/08/03 08:04:53;;;;;;;7.20;2.00;;;;;;;;;;5083130;28;20542;-71
2022/08/03 08:07:21;;;;;;;3.73;2.20;;;;;;;;;;5082166;28;20567;-70
2022/08/03 08:09:48;;;;;;;3.27;2.20;;;;;;;;;;5080335;28;20563;-70
2022/08/03 08:12:21;;;;;;;3.07;1.80;;;;;;;;;;5076252;28;20486;-70
2022/08/03 08:14:48;;;;;;;2.80;1.80;;;;;;;;;;5079331;28;20944;-70
2022/08/03 08:17:15;;;;;;;5.30;2.10;;;;;;;;;;5077022;28;20456;-71
2022/08/03 08:19:42;;;;;;;3.20;2.47;;;;;;;;;;5081721;28;20464;-70
2022/08/03 08:22:09;;;;;;;4.70;2.40;;;;;;;;;;5081897;28;20467;-71
2022/08/03 08:24:36;;;;;;;4.43;2.10;;;;;;;;;;5082713;28;21614;-71
2022/08/03 08:27:10;;;;;;;2.60;2.00;;;;;;;;;;5088853;28;20463;-71
2022/08/03 08:29:39;;;;;;;4.73;2.40;;;;;;;;;;5089720;28;20471;-70
2022/08/03 08:32:12;;;;;;;2.80;1.70;;;;;;;;;;5080540;28;20563;-70
2022/08/03 08:34:40;;;;;;;3.50;1.90;;;;;;;;;;5085509;28;20551;-70
2022/08/03 08:37:08;;;;;;;106.30;9.63;;;;;;;;;;5088602;28;20466;-70
2022/08/03 08:39:35;;;;;;;6.00;2.93;;;;;;;;;;5085295;28;20476;-70
2022/08/03 08:42:07;;;;;;;4.00;2.60;;;;;;;;;;5078783;28;21077;-71
2022/08/03 08:44:39;;;;;;;4.83;1.80;;;;;;;;;;5077671;28;20461;-71
2022/08/03 08:47:13;;;;;;;6.90;3.40;;;;;;;;;;5089571;28;20568;-70
2022/08/03 08:49:41;;;;;;;2.50;1.70;;;;;;;;;;5089367;28;20872;-70
2022/08/03 08:52:16;;;;;;;3.67;1.60;;;;;;;;;;5080540;28;22232;-70
2022/08/03 08:54:44;;;;;;;5.13;1.70;;;;;;;;;;5081664;28;20467;-69
2022/08/03 08:57:15;;;;;;;6.33;2.30;;;;;;;;;;5081482;28;20637;-70
2022/08/03 08:59:46;;;;;;;7.63;3.10;;;;;;;;;;5075992;28;20483;-69
2022/08/03 09:02:14;;;;;;;4.20;1.83;;;;;;;;;;5092531;28;20806;-70
2022/08/03 09:04:47;;;;;;;6.97;2.80;;;;;;;;;;5085245;28;20563;-69
2022/08/03 09:07:15;;;;;;;5.83;1.77;;;;;;;;;;5092295;28;20459;-70
2022/08/03 09:09:47;;;;;;;4.00;3.10;;;;;;;;;;5080268;27;20488;-69
2022/08/03 09:12:15;;;;;;;3.10;1.90;;;;;;;;;;5078095;28;20754;-69
2022/08/03 09:14:43;;;;;;;2.97;1.60;;;;;;;;;;5081020;28;20463;-70
2022/08/03 09:17:10;;;;;;;7.57;2.53;;;;;;;;;;5076143;27;20467;-69
2022/08/03 09:19:38;;;;;;;5.37;3.03;;;;;;;;;;5080433;28;21199;-69
2022/08/03 09:22:14;;;;;;;4.80;2.17;;;;;;;;;;5090490;28;20562;-70
2022/08/03 09:24:55;;;;;;;9.50;2.40;;;;;;;;;;5086094;28;20463;-70
2022/08/03 09:27:22;;;;;;;3.53;2.07;;;;;;;;;;5085088;28;20455;-69
2022/08/03 09:29:53;;;;;;;4.23;1.73;;;;;;;;;;5086279;28;20493;-71
2022/08/03 09:32:21;;;;;;;4.63;1.60;;;;;;;;;;5083832;28;20464;-71
2022/08/03 09:34:56;;;;;;;4.27;1.77;;;;;;;;;;5084752;28;20467;-70
2022/08/03 09:37:27;;;;;;;3.43;2.10;;;;;;;;;;5082741;28;20906;-70
2022/08/03 09:40:01;;;;;;;4.40;1.40;;;;;;;;;;5090080;28;21132;-72
2022/08/03 09:42:39;;;;;;;3.00;1.20;;;;;;;;;;5086988;27;20474;-71
2022/08/03 09:45:29;;;;;;;6.63;1.93;;;;;;;;;;5082900;28;20560;-70
2022/08/03 09:47:58;;;;;;;2.80;1.50;;;;;;;;;;5088448;28;20463;-71
2022/08/03 09:50:28;;;;;;;2.30;1.30;;;;;;;;;;5077712;28;20979;-71
2022/08/03 09:53:11;;;;;;;5.50;2.10;;;;;;;;;;5082885;27;20534;-71
2022/08/03 09:55:38;;;;;;;4.53;1.50;;;;;;;;;;5086925;28;20460;-71
2022/08/03 09:58:08;;;;;;;3.40;1.50;;;;;;;;;;5077961;28;20469;-71
2022/08/03 10:00:53;;;;;;;3.13;1.80;;;;;;;;;;5101088;27;20471;-71
2022/08/03 10:03:21;;;;;;;6.63;2.00;;;;;;;;;;5095968;28;20464;-71
2022/08/03 10:05:49;;;;;;;3.20;1.73;;;;;;;;;;5084733;28;21085;-69
2022/08/03 10:08:17;;;;;;;7.57;1.77;;;;;;;;;;5091532;28;20474;-69
2022/08/03 10:10:45;;;;;;;3.90;1.60;;;;;;;;;;5097822;27;20771;-69
2022/08/03 10:13:13;;;;;;;3.57;1.43;;;;;;;;;;5103883;28;20503;-68
2022/08/03 10:15:42;;;;;;;4.17;1.40;;;;;;;;;;5094420;28;20484;-68
2022/08/03 10:18:10;;;;;;;6.17;1.60;;;;;;;;;;5076152;28;20469;-69
2022/08/03 10:20:38;;;;;;;7.63;2.10;;;;;;;;;;5074457;28;20543;-69
2022/08/03 10:23:08;;;;;;;4.67;1.57;;;;;;;;;;5074312;28;20456;-68
2022/08/03 10:25:36;;;;;;;3.13;1.50;;;;;;;;;;5081499;28;20899;-68
2022/08/03 10:28:05;;;;;;;3.10;1.70;;;;;;;;;;5080940;28;20458;-68
2022/08/03 10:30:36;;;;;;;3.50;1.80;;;;;;;;;;5103900;28;21025;-70
2022/08/03 10:33:07;;;;;;;5.20;1.70;;;;;;;;;;5089402;28;20504;-68
2022/08/03 10:35:34;;;;;;;3.30;1.47;;;;;;;;;;5091771;28;21041;-68
2022/08/03 10:38:02;;;;;;;4.10;2.03;;;;;;;;;;5096649;28;20786;-67
2022/08/03 10:40:31;;;;;;;5.03;2.27;;;;;;;;;;5080610;28;20528;-68
2022/08/03 10:43:10;;;;;;;3.53;1.80;;;;;;;;;;5079392;28;20914;-68
2022/08/03 10:45:41;;;;;;;3.50;1.60;;;;;;;;;;5091469;27;20462;-71
2022/08/03 10:48:08;;;;;;;4.63;1.63;;;;;;;;;;5086834;28;20460;-70
2022/08/03 10:50:35;;;;;;;3.40;1.43;;;;;;;;;;5089943;28;20483;-68
2022/08/03 10:53:05;;;;;;;2.83;1.47;;;;;;;;;;5093396;28;20480;-68
2022/08/03 10:58:39;;;;;;;3.73;1.73;;;;;;;;;;5093064;28;20450;-69
2022/08/03 11:01:08;;;;;;;3.90;2.23;;;;;;;;;;5081123;28;20490;-69
2022/08/03 11:03:56;;;;;;;6.47;2.90;;;;;;;;;;5092648;28;20478;-69
2022/08/03 11:06:24;;;;;;;4.93;1.93;;;;;;;;;;5078967;28;20476;-68
2022/08/03 11:09:14;;;;;;;3.90;2.10;;;;;;;;;;5090637;28;20474;-69
2022/08/03 11:11:42;;;;;;;6.07;2.83;;;;;;;;;;5089400;28;20472;-68
2022/08/03 11:14:10;;;;;;;4.93;2.00;;;;;;;;;;5079664;28;20460;-68
2022/08/03 11:16:39;;;;;;;2.50;1.40;;;;;;;;;;5077857;28;20484;-69
2022/08/03 11:19:08;;;;;;;3.30;1.57;;;;;;;;;;5091135;27;20538;-69
2022/08/03 11:21:54;;;;;;;5.70;2.87;;;;;;;;;;5086638;27;20462;-69
2022/08/03 11:24:42;;;;;;;2.80;2.00;;;;;;;;;;5093366;28;20460;-68
2022/08/03 11:27:20;;;;;;;3.70;1.73;;;;;;;;;;5091370;28;20457;-69
2022/08/03 11:29:55;;;;;;;3.57;1.60;;;;;;;;;;5094011;28;20544;-69
2022/08/03 11:32:46;;;;;;;6.63;1.60;;;;;;;;;;5091483;28;20457;-68
2022/08/03 11:35:15;;;;;;;5.67;1.80;;;;;;;;;;5072953;28;20494;-70
2022/08/03 11:37:57;;;;;;;5.30;2.70;;;;;;;;;;5081221;28;20517;-68
2022/08/03 11:40:35;;;;;;;4.30;1.57;;;;;;;;;;5100960;28;20475;-69
2022/08/03 11:43:07;;;;;;;6.93;1.70;;;;;;;;;;5091382;28;20481;-68
2022/08/03 11:45:36;;;;;;;3.73;1.70;;;;;;;;;;5085757;28;20516;-69
2022/08/03 11:48:13;;;;;;;4.77;1.73;;;;;;;;;;5090116;28;20477;-68
2022/08/03 11:50:43;;;;;;;2.87;1.60;;;;;;;;;;5080029;28;20484;-68
2022/08/03 11:53:13;;;;;;;4.20;1.20;;;;;;;;;;5075516;28;20884;-68
2022/08/03 11:55:43;;;;;;;2.80;1.50;;;;;;;;;;5085757;28;20478;-68
2022/08/03 11:58:17;;;;;;;3.53;1.30;;;;;;;;;;5075857;28;20467;-68
2022/08/03 12:00:44;;;;;;;3.83;1.40;;;;;;;;;;5088150;28;20463;-69
2022/08/03 12:03:14;;;;;;;2.97;2.00;;;;;;;;;;5093066;28;20463;-68
2022/08/03 12:05:46;;;;;;;5.00;1.37;;;;;;;;;;5091439;28;20477;-69
2022/08/03 12:08:17;;;;;;;4.20;1.37;;;;;;;;;;5098056;28;20451;-69
2022/08/03 12:10:56;;;;;;;5.67;1.77;;;;;;;;;;5095703;28;20496;-69
2022/08/03 12:13:45;;;;;;;8.70;1.67;;;;;;;;;;5089673;28;20801;-68
2022/08/03 12:16:27;;;;;;;3.93;1.30;;;;;;;;;;5084769;28;20483;-68
2022/08/03 12:19:01;;;;;;;3.77;1.50;;;;;;;;;;5072081;28;20538;-69
2022/08/03 12:21:30;;;;;;;3.10;1.23;;;;;;;;;;5090339;28;20448;-69
2022/08/03 12:24:05;;;;;;;5.67;2.97;;;;;;;;;;5094059;28;20447;-70
2022/08/03 12:26:47;;;;;;;3.73;1.20;;;;;;;;;;5094413;28;20443;-69
2022/08/03 12:29:21;;;;;;;4.40;1.30;;;;;;;;;;5093630;28;20507;-68
2022/08/03 12:31:50;;;;;;;5.70;1.70;;;;;;;;;;5094230;28;20467;-69
2022/08/03 12:34:21;;;;;;;6.00;2.80;;;;;;;;;;5094545;28;20767;-68
2022/08/03 12:36:52;;;;;;;4.20;1.60;;;;;;;;;;5083811;28;20517;-68
2022/08/03 12:39:24;;;;;;;4.50;1.90;;;;;;;;;;5084110;28;20843;-69
2022/08/03 12:41:53;;;;;;;4.10;2.00;;;;;;;;;;5081866;28;20443;-68
2022/08/03 12:44:29;;;;;;;4.03;1.57;;;;;;;;;;5090801;28;20586;-68
2022/08/03 12:46:58;;;;;;;4.13;1.97;;;;;;;;;;5094670;28;20536;-68
2022/08/03 12:49:29;;;;;;;3.60;1.60;;;;;;;;;;5109011;27;20487;-69
2022/08/03 12:51:58;;;;;;;6.13;1.70;;;;;;;;;;5074607;28;20456;-69
2022/08/03 12:54:28;;;;;;;5.63;1.93;;;;;;;;;;5091063;28;20547;-69
2022/08/03 12:56:59;;;;;;;3.70;1.67;;;;;;;;;;5099419;27;20550;-69
2022/08/03 12:59:29;;;;;;;3.70;2.00;;;;;;;;;;5081170;28;20456;-69
2022/08/03 13:01:57;;;;;;;3.13;1.60;;;;;;;;;;5090029;28;21132;-69
2022/08/03 13:04:33;;;;;;;3.67;1.70;;;;;;;;;;5086924;28;20443;-69
2022/08/03 13:07:01;;;;;;;2.60;1.57;;;;;;;;;;5103747;28;21193;-69
2022/08/03 13:09:28;;;;;;;4.90;1.50;;;;;;;;;;5104985;28;21074;-69
2022/08/03 13:12:11;;;;;;;4.23;1.40;;;;;;;;;;5107625;27;21115;-69
2022/08/03 13:14:44;;;;;;;3.70;1.57;;;;;;;;;;5072542;28;20452;-69
2022/08/03 13:17:12;;;;;;;3.27;1.63;;;;;;;;;;5073135;28;20517;-69
2022/08/03 13:19:39;;;;;;;4.70;1.90;;;;;;;;;;5091712;28;20448;-69
2022/08/03 13:22:14;;;;;;;5.97;1.53;;;;;;;;;;5090918;28;20797;-69
2022/08/03 13:24:41;;;;;;;4.97;1.60;;;;;;;;;;5088652;28;20471;-68
2022/08/03 13:27:08;;;;;;;3.93;1.43;;;;;;;;;;5092873;28;20463;-68
2022/08/03 13:29:36;;;;;;;2.93;1.47;;;;;;;;;;5094515;28;20486;-69
2022/08/03 13:32:04;;;;;;;5.20;1.20;;;;;;;;;;5091099;27;20878;-69
2022/08/03 13:34:31;;;;;;;3.43;1.23;;;;;;;;;;5084546;28;20456;-70
2022/08/03 13:36:58;;;;;;;2.73;1.63;;;;;;;;;;5072733;28;20457;-69
2022/08/03 13:39:25;;;;;;;4.63;1.33;;;;;;;;;;5094325;28;20751;-69
2022/08/03 13:41:54;;;;;;;3.10;1.23;;;;;;;;;;5090661;28;20485;-67
2022/08/03 13:44:21;;;;;;;3.93;1.43;;;;;;;;;;5091296;28;20470;-69
2022/08/03 13:46:49;;;;;;;5.60;1.80;;;;;;;;;;5091677;28;20828;-69
2022/08/03 13:49:18;;;;;;;4.70;3.00;;;;;;;;;;5085029;28;20741;-69
2022/08/03 13:51:47;;;;;;;2.97;1.20;;;;;;;;;;5083664;28;20521;-69
2022/08/03 13:54:14;;;;;;;4.43;1.27;;;;;;;;;;5086362;28;20440;-68
2022/08/03 13:56:42;;;;;;;2.50;1.07;;;;;;;;;;5081247;28;20472;-68
2022/08/03 13:59:09;;;;;;;3.67;1.70;;;;;;;;;;5098124;27;20456;-68
2022/08/03 14:01:37;;;;;;;3.23;1.33;;;;;;;;;;5095387;28;20467;-69
2022/08/03 14:04:04;;;;;;;6.00;1.53;;;;;;;;;;5104486;27;20451;-69
2022/08/03 14:06:32;;;;;;;2.93;1.40;;;;;;;;;;5091091;28;20479;-69
2022/08/03 14:08:59;;;;;;;6.67;1.43;;;;;;;;;;5085157;28;20467;-69
2022/08/03 14:11:27;;;;;;;3.53;1.30;;;;;;;;;;5083026;28;20491;-69
2022/08/03 14:13:54;;;;;;;3.30;1.53;;;;;;;;;;5086396;28;20748;-68
2022/08/03 14:16:22;;;;;;;5.13;1.90;;;;;;;;;;5092956;28;20532;-71
2022/08/03 14:18:52;;;;;;;4.10;1.67;;;;;;;;;;5081958;28;20460;-70
2022/08/03 14:21:22;;;;;;;3.07;1.10;;;;;;;;;;5097283;28;20788;-67
2022/08/03 14:23:51;;;;;;;4.33;1.27;;;;;;;;;;5100953;28;20455;-70
2022/08/03 14:26:19;;;;;;;2.53;1.37;;;;;;;;;;5094178;28;20443;-69
2022/08/03 14:28:47;;;;;;;2.73;1.60;;;;;;;;;;5076156;28;20496;-69
2022/08/03 14:31:16;;;;;;;4.03;1.60;;;;;;;;;;5075227;28;20484;-70
2022/08/03 14:33:43;;;;;;;8.00;1.80;;;;;;;;;;5074843;28;20467;-69
2022/08/03 14:36:11;;;;;;;4.13;2.33;;;;;;;;;;5085290;28;20467;-68
2022/08/03 14:38:38;;;;;;;3.23;1.73;;;;;;;;;;5095158;28;20471;-69
2022/08/03 14:41:06;;;;;;;5.80;2.67;;;;;;;;;;5102443;28;20467;-69
2022/08/03 14:43:33;;;;;;;7.20;1.83;;;;;;;;;;5104213;27;20461;-69
2022/08/03 14:46:01;;;;;;;3.97;2.60;;;;;;;;;;5097100;28;20459;-70
2022/08/03 14:48:28;;;;;;;3.73;1.87;;;;;;;;;;5099558;27;20505;-69
2022/08/03 14:50:56;;;;;;;2.03;1.07;;;;;;;;;;5095467;28;20570;-68
2022/08/03 14:53:23;;;;;;;2.73;1.30;;;;;;;;;;5086708;28;20856;-69
2022/08/03 14:55:52;;;;;;;6.70;3.50;;;;;;;;;;5078010;28;20468;-68
2022/08/03 14:58:20;;;;;;;4.77;1.90;;;;;;;;;;5082791;28;20867;-69
2022/08/03 15:00:47;;;;;;;4.40;1.80;;;;;;;;;;5078421;28;20795;-68
2022/08/03 15:03:14;;;;;;;3.17;1.20;;;;;;;;;;5085230;28;20521;-68
2022/08/03 15:05:45;;;;;;;3.20;1.47;;;;;;;;;;5092994;28;20882;-69
2022/08/03 15:08:12;;;;;;;3.27;1.40;;;;;;;;;;5094820;28;20468;-69